Time;durP1;ratioP1;P1;durP2;ratioP2;P2;SDS_P1;SDS_P2;PMS_P1;PMS_P2;Temp;Humidity;BMP_temperature;BMP_pressure;BME280_temperature;BME280_humidity;BME280_pressure;Samples;Min_cycle;Max_cycle;Signal;HPM_P1;HPM_P2
2024/01/15 00:01:01;;;;;;;;;;;;;;;3.95;91.89;98509.63;5016197;28;19914;-82
2024/01/15 00:03:26;;;;;;;;;;;;;;;3.97;92.27;98512.03;5016087;28;19914;-82
2024/01/15 00:05:52;;;;;;;;;;;;;;;3.80;92.11;98505.47;4998343;28;19914;-82
2024/01/15 00:08:17;;;;;;;;;;;;;;;3.81;92.86;98509.78;5016082;28;19913;-81
2024/01/15 00:10:42;;;;;;;;;;;;;;;3.79;93.08;98506.59;5015823;28;19920;-82
2024/01/15 00:13:08;;;;;;;;;;;;;;;3.68;93.71;98501.78;4997981;28;19918;-83
2024/01/15 00:15:33;;;;;;;;;;;;;;;3.78;93.92;98513.09;5015685;28;19980;-82
2024/01/15 00:17:58;;;;;;;;;;;;;;;3.75;94.32;98504.81;4998013;28;20064;-82
2024/01/15 00:20:23;;;;;;;;;;;;;;;3.68;94.24;98485.59;5015460;28;19940;-82
2024/01/15 00:22:48;;;;;;;;;;;;;;;3.72;94.32;98479.25;4998012;28;19918;-82
2024/01/15 00:25:14;;;;;;;;;;;;;;;3.78;94.08;98488.81;5015358;28;19967;-82
2024/01/15 00:27:39;;;;;;;;;;;;;;;3.74;93.94;98484.31;4997906;28;19921;-83
2024/01/15 00:30:04;;;;;;;;;;;;;;;3.74;94.12;98487.81;5016018;28;19913;-82
2024/01/15 00:32:30;;;;;;;;;;;;;;;3.97;93.71;98493.13;4997708;28;19976;-82
2024/01/15 00:34:55;;;;;;;;;;;;;;;3.73;93.18;98450.31;5015862;28;19922;-82
2024/01/15 00:37:20;;;;;;;;;;;;;;;3.95;93.20;98485.34;5015640;28;19937;-83
2024/01/15 00:39:45;;;;;;;;;;;;;;;3.84;93.06;98468.63;5015582;28;20004;-83
2024/01/15 00:42:11;;;;;;;;;;;;;;;3.74;93.35;98468.91;4997817;28;19991;-85
2024/01/15 00:44:36;;;;;;;;;;;;;;;3.92;92.58;98479.78;4997578;28;20288;-83
2024/01/15 00:47:01;;;;;;;;;;;;;;;3.75;93.25;98475.91;5014494;28;19917;-83
2024/01/15 00:49:27;;;;;;;;;;;;;;;3.89;92.88;98489.28;5023307;28;19920;-83
2024/01/15 00:51:52;;;;;;;;;;;;;;;4.02;92.74;98504.56;5014950;28;19914;-82
2024/01/15 00:54:17;;;;;;;;;;;;;;;4.04;92.24;98491.53;4997348;28;19917;-82
2024/01/15 00:56:43;;;;;;;;;;;;;;;3.81;92.50;98468.47;4997301;28;19925;-82
2024/01/15 00:59:10;;;;;;;;;;;;;;;3.71;93.14;98461.44;5005399;28;19914;-83
2024/01/15 01:01:35;;;;;;;;;;;;;;;3.49;94.02;98443.47;5001079;28;20596;-82
2024/01/15 01:04:00;;;;;;;;;;;;;;;3.66;93.72;98456.22;5017789;28;19921;-81
2024/01/15 01:06:25;;;;;;;;;;;;;;;3.64;94.30;98449.53;5005076;28;19920;-83
2024/01/15 01:08:51;;;;;;;;;;;;;;;3.60;94.79;98454.75;5001066;28;19924;-83
2024/01/15 01:11:16;;;;;;;;;;;;;;;3.47;94.74;98453.78;4996890;28;19971;-83
2024/01/15 01:13:41;;;;;;;;;;;;;;;3.57;94.37;98453.47;4996964;28;19918;-82
2024/01/15 01:16:07;;;;;;;;;;;;;;;3.54;94.18;98451.41;5014568;28;20307;-82
2024/01/15 01:18:32;;;;;;;;;;;;;;;3.72;92.97;98456.84;5000857;28;20364;-82
2024/01/15 01:20:57;;;;;;;;;;;;;;;3.78;91.92;98450.19;5022408;28;20544;-82
2024/01/15 01:23:22;;;;;;;;;;;;;;;3.76;90.77;98430.78;4996926;28;19914;-83
2024/01/15 01:25:47;;;;;;;;;;;;;;;3.79;89.55;98417.47;5014337;28;19913;-82
2024/01/15 01:28:12;;;;;;;;;;;;;;;3.86;88.42;98425.09;5014873;28;19920;-82
2024/01/15 01:30:38;;;;;;;;;;;;;;;3.80;88.24;98421.75;4996974;28;19913;-82
2024/01/15 01:33:03;;;;;;;;;;;;;;;3.94;87.18;98420.81;5014445;28;20438;-82
2024/01/15 01:35:28;;;;;;;;;;;;;;;3.85;86.47;98410.78;5014663;28;20008;-83
2024/01/15 01:37:53;;;;;;;;;;;;;;;3.99;86.04;98429.53;5014888;28;19924;-83
2024/01/15 01:40:19;;;;;;;;;;;;;;;3.75;85.66;98402.19;5014715;28;19917;-82
2024/01/15 01:42:45;;;;;;;;;;;;;;;3.85;85.68;98399.19;4997323;28;19905;-82
2024/01/15 01:45:10;;;;;;;;;;;;;;;3.82;85.88;98403.31;5014653;28;19917;-82
2024/01/15 01:47:36;;;;;;;;;;;;;;;3.85;85.26;98418.09;4996763;28;19921;-82
2024/01/15 01:50:02;;;;;;;;;;;;;;;3.74;84.97;98397.91;4996992;28;19914;-82
2024/01/15 01:52:27;;;;;;;;;;;;;;;3.89;85.00;98400.13;4996700;28;20327;-82
2024/01/15 01:54:52;;;;;;;;;;;;;;;3.74;85.21;98400.59;5000197;28;19917;-82
2024/01/15 01:57:18;;;;;;;;;;;;;;;3.77;85.02;98389.19;5020516;28;19913;-83
2024/01/15 01:59:44;;;;;;;;;;;;;;;3.86;84.72;98390.75;4995803;28;19918;-81
2024/01/15 02:02:09;;;;;;;;;;;;;;;3.91;83.97;98387.13;4996531;28;19944;-82
2024/01/15 02:04:36;;;;;;;;;;;;;;;4.01;84.01;98408.41;5014136;28;19913;-82
2024/01/15 02:07:01;;;;;;;;;;;;;;;4.11;83.31;98393.78;4996416;28;19913;-82
2024/01/15 02:09:26;;;;;;;;;;;;;;;3.98;83.09;98376.63;4996312;28;20277;-82
2024/01/15 02:11:52;;;;;;;;;;;;;;;3.95;83.17;98379.97;5013907;28;20368;-82
2024/01/15 02:14:17;;;;;;;;;;;;;;;3.91;83.14;98384.44;4996366;28;20273;-82
2024/01/15 02:16:42;;;;;;;;;;;;;;;4.03;82.61;98395.38;5013846;28;19913;-81
2024/01/15 02:19:14;;;;;;;;;;;;;;;4.00;82.67;98373.59;5013677;28;19917;-82
2024/01/15 02:21:39;;;;;;;;;;;;;;;4.09;82.74;98398.72;4996452;28;19917;-82
2024/01/15 02:24:04;;;;;;;;;;;;;;;4.09;82.94;98402.22;5013600;28;20008;-82
2024/01/15 02:26:30;;;;;;;;;;;;;;;3.94;82.76;98374.91;4996402;28;19913;-82
2024/01/15 02:28:55;;;;;;;;;;;;;;;3.99;82.96;98372.81;5013608;28;19921;-83
2024/01/15 02:31:20;;;;;;;;;;;;;;;4.07;83.09;98387.44;4996290;28;19913;-82
2024/01/15 02:33:48;;;;;;;;;;;;;;;4.05;82.85;98384.25;4995982;28;19918;-82
2024/01/15 02:36:14;;;;;;;;;;;;;;;4.13;82.68;98394.25;5013686;28;19921;-82
2024/01/15 02:38:41;;;;;;;;;;;;;;;4.13;82.78;98378.03;4995950;28;20297;-83
2024/01/15 02:41:06;;;;;;;;;;;;;;;4.12;82.20;98379.16;5012314;28;19913;-83
2024/01/15 02:43:31;;;;;;;;;;;;;;;4.13;82.21;98378.03;4996122;28;20276;-83
2024/01/15 02:45:57;;;;;;;;;;;;;;;4.09;82.37;98372.50;5001580;28;19914;-82
2024/01/15 02:48:22;;;;;;;;;;;;;;;4.11;82.43;98374.88;5016174;28;19921;-82
2024/01/15 02:50:47;;;;;;;;;;;;;;;4.15;81.95;98376.59;5013553;28;19913;-82
2024/01/15 02:53:12;;;;;;;;;;;;;;;4.25;81.89;98364.69;4995523;28;19917;-81
2024/01/15 02:55:37;;;;;;;;;;;;;;;4.21;81.68;98357.53;5013697;28;19920;-82
2024/01/15 02:58:03;;;;;;;;;;;;;;;4.18;81.36;98369.75;5013311;28;20000;-82
2024/01/15 03:00:28;;;;;;;;;;;;;;;4.22;81.48;98370.75;5013863;28;19953;-82
2024/01/15 03:02:54;;;;;;;;;;;;;;;4.21;81.14;98371.06;5013570;28;19964;-82
2024/01/15 03:05:20;;;;;;;;;;;;;;;4.14;81.01;98350.69;4996027;28;20009;-82
2024/01/15 03:07:45;;;;;;;;;;;;;;;4.12;81.06;98371.06;5013558;28;19941;-82
2024/01/15 03:10:10;;;;;;;;;;;;;;;4.16;81.42;98356.56;5015733;28;19914;-82
2024/01/15 03:12:35;;;;;;;;;;;;;;;4.20;80.72;98358.66;4999889;28;20324;-83
2024/01/15 03:15:00;;;;;;;;;;;;;;;4.26;80.46;98362.78;5017674;28;20399;-83
2024/01/15 03:17:26;;;;;;;;;;;;;;;4.12;80.35;98336.72;5017489;28;19919;-82
2024/01/15 03:19:51;;;;;;;;;;;;;;;4.24;80.32;98359.59;5017518;28;19941;-83
2024/01/15 03:22:16;;;;;;;;;;;;;;;4.31;80.74;98368.00;5017345;28;20265;-83
2024/01/15 03:24:41;;;;;;;;;;;;;;;4.32;80.80;98369.59;4999743;28;19988;-81
2024/01/15 03:27:07;;;;;;;;;;;;;;;4.33;80.91;98376.56;5000270;28;19918;-82
2024/01/15 03:29:32;;;;;;;;;;;;;;;4.20;81.51;98355.97;4999887;28;19972;-82
2024/01/15 03:31:58;;;;;;;;;;;;;;;4.24;81.33;98370.41;5017138;28;19964;-82
2024/01/15 03:34:23;;;;;;;;;;;;;;;4.28;81.63;98371.34;5017141;28;19923;-82
2024/01/15 03:36:48;;;;;;;;;;;;;;;4.30;81.35;98367.22;5017040;28;19914;-83
2024/01/15 03:39:13;;;;;;;;;;;;;;;4.30;81.50;98371.81;5017109;28;19914;-82
2024/01/15 03:41:38;;;;;;;;;;;;;;;4.23;81.81;98364.22;5017072;28;20431;-82
2024/01/15 03:44:04;;;;;;;;;;;;;;;4.13;82.40;98372.66;5016835;28;19920;-83
2024/01/15 03:46:29;;;;;;;;;;;;;;;4.06;82.93;98373.13;4999950;28;19924;-82
2024/01/15 03:48:54;;;;;;;;;;;;;;;4.09;83.13;98356.28;4999341;28;19913;-84
2024/01/15 03:51:19;;;;;;;;;;;;;;;4.20;83.03;98355.97;5016813;28;19923;-82
2024/01/15 03:53:45;;;;;;;;;;;;;;;4.36;82.60;98354.34;5016819;28;19924;-82
2024/01/15 03:56:10;;;;;;;;;;;;;;;4.23;81.95;98349.91;4999650;28;20399;-84
2024/01/15 03:58:35;;;;;;;;;;;;;;;4.17;82.61;98341.16;4999333;28;19940;-83
2024/01/15 04:01:00;;;;;;;;;;;;;;;4.30;82.64;98352.91;4999145;28;19945;-83
2024/01/15 04:03:28;;;;;;;;;;;;;;;4.18;82.89;98377.88;4999277;28;20315;-82
2024/01/15 04:05:53;;;;;;;;;;;;;;;4.15;83.28;98387.41;4999973;28;19933;-82
2024/01/15 04:08:18;;;;;;;;;;;;;;;4.22;83.63;98373.44;5001971;28;20023;-83
2024/01/15 04:10:44;;;;;;;;;;;;;;;4.17;83.75;98363.56;5016580;28;19940;-83
2024/01/15 04:13:09;;;;;;;;;;;;;;;4.44;83.27;98391.34;4996743;28;19922;-82
2024/01/15 04:15:34;;;;;;;;;;;;;;;4.25;83.27;98363.88;5020256;28;20600;-83
2024/01/15 04:18:01;;;;;;;;;;;;;;;4.25;82.80;98380.91;5015947;28;19914;-82
2024/01/15 04:20:26;;;;;;;;;;;;;;;4.34;83.14;98386.28;5015302;28;19918;-83
2024/01/15 04:22:52;;;;;;;;;;;;;;;4.41;82.70;98383.88;5014374;28;20395;-83
2024/01/15 04:25:17;;;;;;;;;;;;;;;4.45;82.61;98390.22;5000553;28;19918;-82
2024/01/15 04:27:42;;;;;;;;;;;;;;;4.31;82.29;98376.09;4999030;28;20083;-83
2024/01/15 04:30:07;;;;;;;;;;;;;;;4.25;82.52;98383.59;5015070;28;20360;-83
2024/01/15 04:32:33;;;;;;;;;;;;;;;4.12;82.96;98379.97;4997680;28;19914;-83
2024/01/15 04:34:58;;;;;;;;;;;;;;;4.28;83.48;98382.97;4998280;28;19917;-83
2024/01/15 04:37:23;;;;;;;;;;;;;;;4.24;83.38;98370.41;4997883;28;19964;-83
2024/01/15 04:39:48;;;;;;;;;;;;;;;4.07;83.74;98355.03;5015059;28;19948;-83
2024/01/15 04:42:13;;;;;;;;;;;;;;;3.94;83.91;98351.38;5015698;28;19917;-84
2024/01/15 04:44:39;;;;;;;;;;;;;;;4.02;83.87;98352.47;5000212;28;20355;-83
2024/01/15 04:47:04;;;;;;;;;;;;;;;4.23;84.02;98363.41;5016635;28;19914;-84
2024/01/15 04:49:29;;;;;;;;;;;;;;;4.11;84.35;98353.25;4997881;28;19921;-83
2024/01/15 04:51:55;;;;;;;;;;;;;;;4.06;84.62;98362.34;4998354;28;19913;-83
2024/01/15 04:54:20;;;;;;;;;;;;;;;4.16;84.44;98347.69;5015253;28;20003;-82
2024/01/15 04:56:45;;;;;;;;;;;;;;;4.34;83.87;98378.16;5015834;28;20004;-82
2024/01/15 04:59:11;;;;;;;;;;;;;;;4.23;83.78;98360.72;4997752;28;20004;-83
2024/01/15 05:01:36;;;;;;;;;;;;;;;4.22;83.44;98354.53;4997763;28;20049;-82
2024/01/15 05:04:01;;;;;;;;;;;;;;;4.08;83.62;98343.88;4997701;28;19914;-82
2024/01/15 05:06:26;;;;;;;;;;;;;;;4.24;83.81;98352.28;5015265;28;19976;-82
2024/01/15 05:08:51;;;;;;;;;;;;;;;4.61;83.38;98377.00;4997513;28;19967;-83
2024/01/15 05:11:17;;;;;;;;;;;;;;;4.38;82.91;98349.41;4997302;28;19964;-84
2024/01/15 05:13:42;;;;;;;;;;;;;;;4.41;83.24;98351.44;4997126;28;19925;-82
2024/01/15 05:16:07;;;;;;;;;;;;;;;4.31;83.34;98339.06;5017068;28;20285;-83
2024/01/15 05:18:32;;;;;;;;;;;;;;;4.01;84.45;98327.34;5015496;28;19966;-82
2024/01/15 05:20:58;;;;;;;;;;;;;;;3.97;85.63;98342.63;4997733;28;19959;-83
2024/01/15 05:23:23;;;;;;;;;;;;;;;4.04;85.84;98345.63;5014860;28;19918;-82
2024/01/15 05:25:48;;;;;;;;;;;;;;;4.03;86.37;98354.84;4997293;28;20304;-83
2024/01/15 05:28:14;;;;;;;;;;;;;;;4.21;85.96;98371.06;4997441;28;19913;-83
2024/01/15 05:30:39;;;;;;;;;;;;;;;3.85;86.26;98345.16;5014936;28;19918;-83
2024/01/15 05:33:04;;;;;;;;;;;;;;;4.09;86.72;98363.59;4996274;28;19914;-83
2024/01/15 05:35:29;;;;;;;;;;;;;;;3.92;87.84;98355.50;4997199;28;19956;-82
2024/01/15 05:37:54;;;;;;;;;;;;;;;3.79;88.88;98359.97;4997710;28;20292;-82
2024/01/15 05:40:20;;;;;;;;;;;;;;;3.83;89.19;98356.28;5014852;28;20419;-83
2024/01/15 05:42:45;;;;;;;;;;;;;;;3.84;89.63;98367.91;5014567;28;19946;-82
2024/01/15 05:45:10;;;;;;;;;;;;;;;3.82;89.70;98364.72;4996733;28;19913;-83
2024/01/15 05:47:35;;;;;;;;;;;;;;;3.82;89.77;98349.31;4996984;28;19921;-83
2024/01/15 05:50:01;;;;;;;;;;;;;;;3.78;89.86;98348.38;5014776;28;19969;-83
2024/01/15 05:52:26;;;;;;;;;;;;;;;3.74;89.72;98354.69;4996940;28;19947;-82
2024/01/15 05:54:51;;;;;;;;;;;;;;;3.83;89.54;98331.19;5013729;28;19917;-82
2024/01/15 05:57:16;;;;;;;;;;;;;;;3.80;89.03;98315.63;5013645;28;19917;-84
2024/01/15 05:59:42;;;;;;;;;;;;;;;3.94;88.70;98342.47;4995879;28;19921;-82
2024/01/15 06:02:07;;;;;;;;;;;;;;;3.86;88.32;98335.94;4995773;28;20376;-82
2024/01/15 06:04:33;;;;;;;;;;;;;;;3.92;88.63;98333.91;4995570;28;19913;-83
2024/01/15 06:06:58;;;;;;;;;;;;;;;3.94;88.44;98342.47;4995538;28;20394;-82
2024/01/15 06:09:23;;;;;;;;;;;;;;;3.86;88.23;98331.34;5013216;28;19913;-82
2024/01/15 06:11:48;;;;;;;;;;;;;;;3.86;88.22;98325.16;5013392;28;19920;-82
2024/01/15 06:14:14;;;;;;;;;;;;;;;3.88;88.15;98344.53;4995255;28;19968;-82
2024/01/15 06:16:39;;;;;;;;;;;;;;;3.80;88.62;98339.94;4995798;28;20402;-82
2024/01/15 06:19:04;;;;;;;;;;;;;;;3.69;89.44;98344.06;4995702;28;19917;-83
2024/01/15 06:21:29;;;;;;;;;;;;;;;3.68;90.00;98339.78;5013396;28;19917;-83
2024/01/15 06:23:56;;;;;;;;;;;;;;;3.54;91.12;98327.22;5012756;28;19914;-82
2024/01/15 06:26:21;;;;;;;;;;;;;;;3.52;91.36;98334.84;5013260;28;20281;-82
2024/01/15 06:28:47;;;;;;;;;;;;;;;3.69;91.74;98352.16;5013305;28;19928;-82
2024/01/15 06:31:12;;;;;;;;;;;;;;;3.69;92.40;98344.06;5013059;28;19921;-83
2024/01/15 06:33:37;;;;;;;;;;;;;;;3.52;92.69;98348.34;5012640;28;20016;-82
2024/01/15 06:36:03;;;;;;;;;;;;;;;3.56;92.59;98362.00;4995190;28;19913;-82
2024/01/15 06:38:28;;;;;;;;;;;;;;;3.74;93.11;98360.09;4995311;28;20364;-83
2024/01/15 06:40:53;;;;;;;;;;;;;;;3.66;92.50;98356.31;5012969;28;19997;-82
2024/01/15 06:43:18;;;;;;;;;;;;;;;3.70;92.60;98370.75;5012662;28;20024;-83
2024/01/15 06:45:44;;;;;;;;;;;;;;;3.81;91.96;98368.53;4994765;28;20394;-82
2024/01/15 06:48:09;;;;;;;;;;;;;;;3.93;91.70;98371.41;5012777;28;19917;-82
2024/01/15 06:50:34;;;;;;;;;;;;;;;3.95;90.52;98369.16;4994883;28;19913;-83
2024/01/15 06:52:59;;;;;;;;;;;;;;;3.80;90.73;98375.06;4994857;28;19967;-82
2024/01/15 06:55:27;;;;;;;;;;;;;;;3.97;90.05;98380.44;4994556;28;20399;-82
2024/01/15 06:57:53;;;;;;;;;;;;;;;4.15;89.99;98378.53;4994961;28;19940;-83
2024/01/15 07:00:19;;;;;;;;;;;;;;;4.03;89.26;98381.84;4995379;28;19914;-82
2024/01/15 07:02:44;;;;;;;;;;;;;;;4.10;88.74;98370.59;4994691;28;19976;-83
2024/01/15 07:05:10;;;;;;;;;;;;;;;4.14;88.06;98361.50;4994963;28;19918;-82
2024/01/15 07:07:36;;;;;;;;;;;;;;;4.20;87.61;98369.47;4994840;28;19969;-82
2024/01/15 07:10:01;;;;;;;;;;;;;;;4.13;87.51;98359.13;4994859;28;19921;-82
2024/01/15 07:12:26;;;;;;;;;;;;;;;4.04;87.77;98364.53;5012582;28;20376;-82
2024/01/15 07:14:51;;;;;;;;;;;;;;;4.09;87.40;98348.19;5012351;28;19925;-82
2024/01/15 07:17:19;;;;;;;;;;;;;;;4.20;87.04;98370.25;5012378;28;19917;-83
2024/01/15 07:19:44;;;;;;;;;;;;;;;4.08;87.01;98370.91;5012710;28;19971;-84
2024/01/15 07:22:10;;;;;;;;;;;;;;;4.10;87.16;98371.38;5014472;28;20380;-83
2024/01/15 07:24:35;;;;;;;;;;;;;;;3.95;87.36;98344.06;4994899;28;19922;-82
2024/01/15 07:27:00;;;;;;;;;;;;;;;3.97;87.94;98363.44;4995193;28;19920;-83
2024/01/15 07:29:25;;;;;;;;;;;;;;;3.89;88.17;98359.63;5012423;28;19913;-82
2024/01/15 07:31:51;;;;;;;;;;;;;;;3.77;89.23;98373.00;5012255;28;20000;-83
2024/01/15 07:34:17;;;;;;;;;;;;;;;4.00;89.71;98382.50;5011984;28;20295;-83
2024/01/15 07:36:42;;;;;;;;;;;;;;;4.01;89.30;98392.19;5012263;28;19913;-82
2024/01/15 07:39:07;;;;;;;;;;;;;;;3.94;89.41;98374.91;4994636;28;19913;-82
2024/01/15 07:41:32;;;;;;;;;;;;;;;3.91;89.24;98389.84;5012485;28;20371;-82
2024/01/15 07:43:57;;;;;;;;;;;;;;;4.03;89.70;98397.28;5012176;28;20304;-82
2024/01/15 07:46:23;;;;;;;;;;;;;;;3.97;89.79;98399.34;5012228;28;20475;-83
2024/01/15 07:48:48;;;;;;;;;;;;;;;3.82;90.44;98387.13;4994597;28;20008;-83
2024/01/15 07:51:13;;;;;;;;;;;;;;;3.78;91.37;98383.47;4994575;28;20051;-83
2024/01/15 07:53:38;;;;;;;;;;;;;;;3.78;91.36;98380.78;5010511;28;19967;-82
2024/01/15 07:56:04;;;;;;;;;;;;;;;3.88;91.13;98379.66;4994800;28;19914;-82
2024/01/15 07:58:29;;;;;;;;;;;;;;;3.88;90.95;98393.94;5015840;28;20403;-82
2024/01/15 08:00:54;;;;;;;;;;;;;;;3.84;91.45;98403.81;5015649;28;19917;-83
2024/01/15 08:03:19;;;;;;;;;;;;;;;3.88;91.77;98396.63;5015331;28;19972;-84
2024/01/15 08:05:44;;;;;;;;;;;;;;;3.77;92.29;98403.50;5015525;28;20008;-83
2024/01/15 08:08:10;;;;;;;;;;;;;;;3.89;92.11;98403.63;4997210;28;19988;-83
2024/01/15 08:10:35;;;;;;;;;;;;;;;4.00;91.70;98404.13;5000827;28;20025;-83
2024/01/15 08:13:00;;;;;;;;;;;;;;;3.88;91.72;98390.44;5026811;28;19919;-83
2024/01/15 08:15:25;;;;;;;;;;;;;;;3.88;91.00;98398.56;5015170;28;20442;-83
2024/01/15 08:17:50;;;;;;;;;;;;;;;3.87;90.74;98396.97;4997554;28;20012;-83
2024/01/15 08:20:16;;;;;;;;;;;;;;;4.04;90.02;98396.16;5014806;28;19971;-85
2024/01/15 08:22:41;;;;;;;;;;;;;;;4.02;89.34;98396.47;4997345;28;19921;-82
2024/01/15 08:25:06;;;;;;;;;;;;;;;4.06;89.26;98402.88;4997392;28;19913;-84
2024/01/15 08:27:31;;;;;;;;;;;;;;;3.89;89.35;98389.34;4997473;28;19944;-83
2024/01/15 08:29:57;;;;;;;;;;;;;;;3.83;90.04;98393.31;4997242;28;19921;-83
2024/01/15 08:32:22;;;;;;;;;;;;;;;3.94;90.22;98400.00;5014778;28;19921;-83
2024/01/15 08:34:48;;;;;;;;;;;;;;;3.98;89.60;98376.63;4999626;28;19971;-83
2024/01/15 08:37:14;;;;;;;;;;;;;;;4.02;89.29;98398.41;5031201;28;19959;-82
2024/01/15 08:39:39;;;;;;;;;;;;;;;4.04;89.02;98396.97;4997314;28;19940;-83
2024/01/15 08:42:05;;;;;;;;;;;;;;;4.11;88.09;98386.47;5014631;28;19914;-83
2024/01/15 08:44:30;;;;;;;;;;;;;;;4.18;87.09;98396.78;4996888;28;20400;-83
2024/01/15 08:46:55;;;;;;;;;;;;;;;4.01;86.38;98362.47;5014501;28;20439;-82
2024/01/15 08:49:20;;;;;;;;;;;;;;;4.30;86.20;98399.66;4996803;28;19913;-83
2024/01/15 08:51:45;;;;;;;;;;;;;;;4.28;85.62;98392.97;4996874;28;19925;-83
2024/01/15 08:54:11;;;;;;;;;;;;;;;4.45;85.39;98391.03;4996598;28;20343;-82
2024/01/15 08:56:36;;;;;;;;;;;;;;;4.10;85.63;98386.81;5014285;28;19920;-83
2024/01/15 08:59:01;;;;;;;;;;;;;;;4.11;85.79;98385.69;5014574;28;19968;-83
2024/01/15 09:01:26;;;;;;;;;;;;;;;4.11;86.20;98391.09;5014251;28;19920;-83
2024/01/15 09:03:51;;;;;;;;;;;;;;;3.89;86.81;98378.53;5014076;28;19921;-82
2024/01/15 09:06:17;;;;;;;;;;;;;;;3.93;87.42;98376.00;5014286;28;19921;-82
2024/01/15 09:08:42;;;;;;;;;;;;;;;4.17;87.23;98395.19;5013942;28;20357;-83
2024/01/15 09:11:07;;;;;;;;;;;;;;;4.24;86.08;98403.63;5024748;28;19919;-82
2024/01/15 09:13:32;;;;;;;;;;;;;;;4.22;85.47;98388.84;5003055;28;19928;-84
2024/01/15 09:15:58;;;;;;;;;;;;;;;4.23;84.62;98383.13;4996699;28;20462;-83
2024/01/15 09:18:23;;;;;;;;;;;;;;;4.26;83.80;98384.41;5014237;28;19921;-83
2024/01/15 09:20:48;;;;;;;;;;;;;;;4.34;83.40;98394.38;4996895;28;19921;-85
2024/01/15 09:23:13;;;;;;;;;;;;;;;4.35;83.02;98396.78;4994507;28;20407;-81
2024/01/15 09:25:38;;;;;;;;;;;;;;;4.34;83.48;98389.81;5013326;28;19940;-83
2024/01/15 09:28:04;;;;;;;;;;;;;;;4.23;83.09;98372.31;4996362;28;19949;-82
2024/01/15 09:30:29;;;;;;;;;;;;;;;4.22;83.57;98384.25;5013508;28;19940;-82
2024/01/15 09:32:54;;;;;;;;;;;;;;;4.29;83.30;98397.25;5013577;28;19959;-83
2024/01/15 09:35:19;;;;;;;;;;;;;;;4.32;83.50;98399.31;5013467;28;19925;-82
2024/01/15 09:37:45;;;;;;;;;;;;;;;4.35;83.34;98409.50;5013650;28;19914;-84
2024/01/15 09:40:13;;;;;;;;;;;;;;;4.44;83.10;98415.69;5013480;28;19913;-82
2024/01/15 09:42:38;;;;;;;;;;;;;;;4.52;82.66;98417.59;4995638;28;19914;-83
2024/01/15 09:45:04;;;;;;;;;;;;;;;4.36;82.87;98414.59;5013379;28;19921;-82
2024/01/15 09:47:30;;;;;;;;;;;;;;;4.32;82.85;98396.63;4995662;28;20396;-83
2024/01/15 09:49:57;;;;;;;;;;;;;;;4.48;83.05;98417.44;5009235;28;19918;-82
2024/01/15 09:52:23;;;;;;;;;;;;;;;4.51;82.85;98416.00;5013144;28;19913;-82
2024/01/15 09:54:49;;;;;;;;;;;;;;;4.51;83.07;98420.63;5000419;28;19925;-82
2024/01/15 09:57:14;;;;;;;;;;;;;;;4.53;83.02;98421.88;5013510;28;19943;-82
2024/01/15 09:59:42;;;;;;;;;;;;;;;4.40;82.50;98402.03;5013459;28;19921;-84
2024/01/15 10:02:08;;;;;;;;;;;;;;;4.41;82.15;98413.63;4996058;28;19913;-82
2024/01/15 10:04:33;;;;;;;;;;;;;;;4.64;82.13;98425.84;5013222;28;20261;-83
2024/01/15 10:07:00;;;;;;;;;;;;;;;4.55;81.83;98410.75;5013731;28;20008;-83
2024/01/15 10:09:25;;;;;;;;;;;;;;;4.65;81.88;98427.44;5003346;28;20381;-82
2024/01/15 10:11:51;;;;;;;;;;;;;;;4.87;81.76;98448.03;5001282;28;19996;-82
2024/01/15 10:14:16;;;;;;;;;;;;;;;4.46;82.06;98416.94;4995769;28;20416;-82
2024/01/15 10:16:41;;;;;;;;;;;;;;;4.46;83.49;98448.59;4995798;28;19914;-83
2024/01/15 10:19:09;;;;;;;;;;;;;;;3.89;86.36;98440.66;5005140;28;20338;-83
2024/01/15 10:21:35;;;;;;;;;;;;;;;3.70;88.17;98434.75;5002169;28;19913;-83
2024/01/15 10:24:01;;;;;;;;;;;;;;;3.72;89.85;98422.53;4996133;28;19963;-82
2024/01/15 10:26:26;;;;;;;;;;;;;;;3.80;90.46;98439.88;4995890;28;19921;-83
2024/01/15 10:28:55;;;;;;;;;;;;;;;3.84;91.41;98440.81;5013427;28;19913;-83
2024/01/15 10:31:21;;;;;;;;;;;;;;;3.84;91.42;98430.00;4995887;28;19983;-83
2024/01/15 10:33:46;;;;;;;;;;;;;;;3.79;92.11;98425.56;5013310;28;20360;-83
2024/01/15 10:36:12;;;;;;;;;;;;;;;3.79;91.71;98439.06;4996197;28;19913;-83
2024/01/15 10:38:37;;;;;;;;;;;;;;;4.07;91.14;98438.78;5014052;28;19920;-82
2024/01/15 10:41:02;;;;;;;;;;;;;;;3.98;89.89;98419.84;5013642;28;20422;-82
2024/01/15 10:43:28;;;;;;;;;;;;;;;4.16;89.06;98424.13;5013242;28;19913;-82
2024/01/15 10:45:53;;;;;;;;;;;;;;;4.10;87.67;98425.41;5013637;28;19913;-83
2024/01/15 10:48:19;;;;;;;;;;;;;;;4.16;86.63;98429.53;5014211;28;19981;-83
2024/01/15 10:50:45;;;;;;;;;;;;;;;4.30;86.20;98434.00;5013399;28;20291;-82
2024/01/15 10:53:11;;;;;;;;;;;;;;;4.32;85.44;98439.88;4998718;28;20011;-83
2024/01/15 10:55:37;;;;;;;;;;;;;;;4.55;84.39;98435.06;5022840;28;19979;-82
2024/01/15 10:58:03;;;;;;;;;;;;;;;4.52;84.07;98436.53;4996017;28;19948;-82
2024/01/15 11:00:29;;;;;;;;;;;;;;;4.41;83.59;98422.53;5013576;28;20377;-83
2024/01/15 11:02:57;;;;;;;;;;;;;;;4.54;83.70;98426.16;5011085;28;19972;-85
2024/01/15 11:05:22;;;;;;;;;;;;;;;4.48;82.99;98419.31;5017706;28;20427;-83
2024/01/15 11:07:54;;;;;;;;;;;;;;;4.49;83.12;98426.34;5021672;28;19941;-83
2024/01/15 11:10:39;;;;;;;;;;;;;;;4.53;82.82;98424.59;5013024;28;19914;-83
2024/01/15 11:13:04;;;;;;;;;;;;;;;4.63;82.57;98426.97;4994014;28;19926;-83
2024/01/15 11:15:30;;;;;;;;;;;;;;;4.42;82.25;98410.59;5008997;28;19972;-83
2024/01/15 11:18:00;;;;;;;;;;;;;;;4.45;82.08;98418.06;4991379;28;19929;-83
2024/01/15 11:20:26;;;;;;;;;;;;;;;4.46;81.89;98416.94;4990429;28;19924;-82
2024/01/15 11:22:51;;;;;;;;;;;;;;;4.52;81.58;98416.78;5017116;28;19913;-83
2024/01/15 11:25:18;;;;;;;;;;;;;;;4.50;81.61;98417.13;4997461;28;19964;-83
2024/01/15 11:27:47;;;;;;;;;;;;;;;4.43;81.32;98401.38;4995201;28;19913;-83
2024/01/15 11:30:13;;;;;;;;;;;;;;;4.56;81.13;98413.13;5005398;28;20287;-83
2024/01/15 11:32:42;;;;;;;;;;;;;;;4.36;81.15;98392.97;4998693;28;19921;-82
2024/01/15 11:35:08;;;;;;;;;;;;;;;4.51;81.28;98405.19;4998796;28;20299;-83
2024/01/15 11:37:52;;;;;;;;;;;;;;;4.36;80.90;98375.97;5016869;28;19914;-83
2024/01/15 11:40:18;;;;;;;;;;;;;;;4.43;80.52;98390.56;4998785;28;19918;-83
2024/01/15 11:42:44;;;;;;;;;;;;;;;4.31;80.12;98373.41;5012512;28;20392;-82
2024/01/15 11:45:09;;;;;;;;;;;;;;;4.67;79.89;98394.66;4998544;28;19984;-82
2024/01/15 11:47:37;;;;;;;;;;;;;;;4.46;79.81;98383.72;5020484;28;20377;-83
2024/01/15 11:50:05;;;;;;;;;;;;;;;4.57;79.56;98386.88;5022084;28;20296;-82
2024/01/15 11:52:37;;;;;;;;;;;;;;;4.56;78.97;98369.84;5011722;28;19928;-83
2024/01/15 11:55:14;;;;;;;;;;;;;;;4.54;79.34;98377.50;4995106;28;19929;-82
2024/01/15 11:57:40;;;;;;;;;;;;;;;4.59;79.03;98373.81;4998172;28;20124;-83
2024/01/15 12:00:06;;;;;;;;;;;;;;;4.51;79.07;98371.94;5013850;28;19924;-82
2024/01/15 12:02:31;;;;;;;;;;;;;;;4.44;79.67;98373.22;4990599;28;19918;-83
2024/01/15 12:04:56;;;;;;;;;;;;;;;4.38;79.83;98371.81;5020560;28;20249;-83
2024/01/15 12:07:22;;;;;;;;;;;;;;;4.32;79.48;98370.38;5016720;28;20302;-82
2024/01/15 12:09:47;;;;;;;;;;;;;;;4.32;79.94;98361.47;5020209;28;19924;-83
2024/01/15 12:12:17;;;;;;;;;;;;;;;4.32;79.86;98364.19;5020507;28;19921;-85
2024/01/15 12:14:44;;;;;;;;;;;;;;;4.35;80.08;98358.94;4991079;28;19917;-82
2024/01/15 12:17:10;;;;;;;;;;;;;;;4.43;79.81;98370.84;5015152;28;20368;-85
2024/01/15 12:19:36;;;;;;;;;;;;;;;4.45;80.04;98380.22;5016253;28;19918;-84
2024/01/15 12:22:01;;;;;;;;;;;;;;;4.29;80.10;98351.31;4998305;28;19925;-83
2024/01/15 12:24:26;;;;;;;;;;;;;;;4.31;80.49;98373.41;4998333;28;20008;-83
2024/01/15 12:26:51;;;;;;;;;;;;;;;4.48;80.13;98381.47;5015853;28;19920;-84
2024/01/15 12:29:17;;;;;;;;;;;;;;;4.50;79.53;98368.47;4998204;28;19917;-83
2024/01/15 12:31:43;;;;;;;;;;;;;;;4.71;79.25;98361.22;4998164;28;19917;-82
2024/01/15 12:34:08;;;;;;;;;;;;;;;4.58;79.22;98370.31;5015403;28;19972;-83
2024/01/15 12:36:33;;;;;;;;;;;;;;;4.50;79.01;98387.38;4997714;28;19960;-82
2024/01/15 12:38:59;;;;;;;;;;;;;;;4.52;78.89;98378.94;4997891;28;19968;-83
2024/01/15 12:41:24;;;;;;;;;;;;;;;4.58;78.93;98369.53;5015948;28;19955;-83
2024/01/15 12:43:50;;;;;;;;;;;;;;;4.61;78.66;98383.19;5014618;28;19987;-83
2024/01/15 12:46:15;;;;;;;;;;;;;;;4.57;78.76;98367.94;5015807;28;20438;-83
2024/01/15 12:48:40;;;;;;;;;;;;;;;4.57;78.46;98371.44;5015465;28;19914;-83